Карточка аэропорта UUYY

Внимание!
Информация на этой странице в стадии наполнения.
Если вы не увидели какой-то информации, или заметили неточность - пожалуйста сообщите нам!
Спасибо!
Команда RU-STAFF
Название аэропортаСыктывкар
Название аэропорта (англ.)Syktyvkar
Превышение339 ft. (103.3 m.)
Координаты61°38.502', 50°50.298'
Высота перехода3000 feet
Эшелон переходаQNH>=1013hPa:FL040; QNH<1013hPa:FL050; QNH<977hPa:FL060
Коды ответчика3130-3134, 5752-5757, 5770-5777, 6701-6717
Зона ОрВДСанкт-Петербург РПИ (ULLL)
Данные METARUUYY 010700Z 18005MPS 9999 -RA OVC008 06/06 Q1019 R18/29//51 NOSIG RMK QFE756/1008
Проноз погоды (TAF)UUYY 010500Z 0106/0206 18005G13MPS 6000 -SHRA BKN005 BKN017CB TEMPO 0106/0109 1000 SHRA BR BKN003 BKN016CB BECMG 0110/0111 BKN011 BKN017CB TEMPO 0111/0115 BKN005 BKN016CB TEMPO 0115/0206 0300 FG VV002 BECMG 0121/0122 16003G11MPS
NOTAMshow/hide NOTAM
AWOS   TABLE

Информация о ВПП

ВПП Длина ВПП (м.) Покрытие Курс ВПП Частота ILS
012500Асфальтобетон6108.3
192500Асфальтобетон186111.7

Диспетчерские позиции

Позывной Наименование органа УВД Частота
UUYY_TWRСивкар-Старт124.600
UUYY_R_APPСивкар-Круг124.600



Спутниковое изображение